Time;durP1;ratioP1;P1;durP2;ratioP2;P2;SDS_P1;SDS_P2;PMS_P1;PMS_P2;Temp;Humidity;BMP_temperature;BMP_pressure;BME280_temperature;BME280_humidity;BME280_pressure;Samples;Min_cycle;Max_cycle;Signal;HPM_P1;HPM_P2
2022/03/08 00:01:57;;;;;;;338.20;30.65;;;;;;;;;;4954969;28;20929;-69
2022/03/08 00:04:24;;;;;;;448.38;34.35;;;;;;;;;;4956399;28;20517;-70
2022/03/08 00:06:50;;;;;;;338.10;30.73;;;;;;;;;;4957146;28;20051;-70
2022/03/08 00:09:17;;;;;;;406.40;34.35;;;;;;;;;;4954913;28;20147;-70
2022/03/08 00:11:43;;;;;;;293.35;29.73;;;;;;;;;;4955578;28;20150;-70
2022/03/08 00:14:10;;;;;;;424.48;34.28;;;;;;;;;;4954147;28;20074;-70
2022/03/08 00:16:37;;;;;;;459.98;35.22;;;;;;;;;;4952587;28;20190;-70
2022/03/08 00:19:06;;;;;;;538.75;36.08;;;;;;;;;;4953288;28;20780;-69
2022/03/08 00:21:33;;;;;;;235.90;27.63;;;;;;;;;;4956461;28;20162;-70
2022/03/08 00:23:59;;;;;;;415.20;32.03;;;;;;;;;;4955848;28;20606;-68
2022/03/08 00:26:26;;;;;;;496.88;36.97;;;;;;;;;;4955911;28;20962;-70
2022/03/08 00:28:52;;;;;;;286.33;29.77;;;;;;;;;;4957076;28;20129;-70
2022/03/08 00:31:19;;;;;;;176.73;27.52;;;;;;;;;;4956993;28;20146;-69
2022/03/08 00:33:45;;;;;;;176.85;25.55;;;;;;;;;;4955542;28;20058;-70
2022/03/08 00:36:12;;;;;;;285.23;27.42;;;;;;;;;;4953992;28;20133;-69
2022/03/08 00:38:39;;;;;;;554.80;35.60;;;;;;;;;;4955692;28;20146;-70
2022/03/08 00:41:05;;;;;;;491.73;33.03;;;;;;;;;;4956513;28;20128;-70
2022/03/08 00:43:32;;;;;;;321.55;28.98;;;;;;;;;;4955083;28;20578;-69
2022/03/08 00:45:58;;;;;;;241.35;26.75;;;;;;;;;;4955343;28;20551;-70
2022/03/08 00:48:25;;;;;;;299.38;27.73;;;;;;;;;;4957100;28;20055;-70
2022/03/08 00:50:52;;;;;;;362.53;29.73;;;;;;;;;;4954775;28;20075;-70
2022/03/08 00:53:19;;;;;;;360.05;22.60;;;;;;;;;;4956695;28;20847;-69
2022/03/08 00:55:45;;;;;;;357.92;28.05;;;;;;;;;;4955818;28;20113;-70
2022/03/08 00:58:12;;;;;;;740.33;39.53;;;;;;;;;;4955488;28;20130;-69
2022/03/08 01:00:41;;;;;;;410.58;29.75;;;;;;;;;;4953547;28;20137;-70
2022/03/08 01:03:08;;;;;;;486.60;31.00;;;;;;;;;;4954636;28;20047;-70
2022/03/08 01:05:35;;;;;;;281.65;28.45;;;;;;;;;;4956467;28;20133;-70
2022/03/08 01:08:02;;;;;;;309.92;28.75;;;;;;;;;;4955948;28;20145;-70
2022/03/08 01:10:28;;;;;;;441.67;29.73;;;;;;;;;;4955117;28;20137;-69
2022/03/08 01:12:56;;;;;;;417.50;28.27;;;;;;;;;;4957483;28;20055;-70
2022/03/08 01:15:24;;;;;;;527.13;33.78;;;;;;;;;;4954256;28;20137;-69
2022/03/08 01:17:51;;;;;;;528.45;35.47;;;;;;;;;;4953784;28;20123;-70
2022/03/08 01:20:18;;;;;;;475.00;32.72;;;;;;;;;;4956673;28;20047;-70
2022/03/08 01:22:46;;;;;;;544.92;34.53;;;;;;;;;;4954885;28;20078;-70
2022/03/08 01:25:14;;;;;;;282.88;26.38;;;;;;;;;;4953917;28;20059;-69
2022/03/08 01:27:41;;;;;;;469.75;29.40;;;;;;;;;;4957370;28;20819;-70
2022/03/08 01:30:08;;;;;;;659.83;35.20;;;;;;;;;;4954495;28;20143;-70
2022/03/08 01:32:35;;;;;;;;;;;;;;;;;;4953843;28;20165;-70
2022/03/08 01:35:02;;;;;;;257.40;24.48;;;;;;;;;;4954430;28;20012;-69
2022/03/08 01:37:28;;;;;;;406.58;32.22;;;;;;;;;;4953413;28;20144;-69
2022/03/08 01:39:55;;;;;;;515.38;32.70;;;;;;;;;;4955106;28;20069;-70
2022/03/08 01:42:22;;;;;;;683.00;35.70;;;;;;;;;;4956292;28;20911;-69
2022/03/08 01:44:50;;;;;;;532.42;33.33;;;;;;;;;;4954631;28;20050;-70
2022/03/08 01:47:18;;;;;;;654.90;38.38;;;;;;;;;;4952367;28;20050;-70
2022/03/08 01:49:45;;;;;;;739.85;41.65;;;;;;;;;;4953479;28;20043;-70
2022/03/08 01:52:12;;;;;;;518.78;34.60;;;;;;;;;;4940063;28;20093;-70
2022/03/08 01:54:38;;;;;;;639.78;33.35;;;;;;;;;;4938092;28;20113;-69
2022/03/08 01:57:05;;;;;;;434.33;31.73;;;;;;;;;;4952828;28;20055;-70
2022/03/08 01:59:34;;;;;;;469.70;31.13;;;;;;;;;;4953100;28;20129;-70
2022/03/08 02:02:01;;;;;;;561.97;28.73;;;;;;;;;;4953800;28;20514;-70
2022/03/08 02:04:28;;;;;;;;;;;;;;;;;;4953281;28;20051;-70
2022/03/08 02:06:56;;;;;;;678.75;34.65;;;;;;;;;;4952995;28;20014;-70
2022/03/08 02:09:23;;;;;;;373.33;28.42;;;;;;;;;;4954036;28;20437;-70
2022/03/08 02:11:49;;;;;;;322.10;28.77;;;;;;;;;;4955582;28;20497;-70
2022/03/08 02:14:16;;;;;;;423.53;28.57;;;;;;;;;;4954373;28;20190;-70
2022/03/08 02:16:43;;;;;;;311.83;24.88;;;;;;;;;;4954351;28;20050;-70
2022/03/08 02:19:11;;;;;;;146.25;21.85;;;;;;;;;;4953694;28;20063;-70
2022/03/08 02:21:37;;;;;;;147.75;22.13;;;;;;;;;;4953594;28;20142;-70
2022/03/08 02:24:04;;;;;;;238.57;22.80;;;;;;;;;;4954769;28;20134;-70
2022/03/08 02:26:34;;;;;;;239.68;25.13;;;;;;;;;;4954297;28;20060;-70
2022/03/08 02:29:03;;;;;;;352.13;24.80;;;;;;;;;;4952871;28;20096;-70
2022/03/08 02:31:29;;;;;;;374.33;27.67;;;;;;;;;;4952329;28;20628;-70
2022/03/08 02:33:56;;;;;;;194.40;19.65;;;;;;;;;;4953514;28;20086;-70
2022/03/08 02:36:22;;;;;;;138.93;20.77;;;;;;;;;;4954352;28;20501;-70
2022/03/08 02:38:49;;;;;;;189.27;21.45;;;;;;;;;;4952926;28;20134;-69
2022/03/08 02:41:16;;;;;;;149.70;21.48;;;;;;;;;;4951898;28;20054;-70
2022/03/08 02:43:43;;;;;;;194.48;22.25;;;;;;;;;;4953954;28;20058;-70
2022/03/08 02:46:10;;;;;;;162.93;21.75;;;;;;;;;;4953565;28;20170;-70
2022/03/08 02:48:37;;;;;;;178.27;25.27;;;;;;;;;;4954472;28;20138;-70
2022/03/08 02:51:03;;;;;;;98.97;16.37;;;;;;;;;;4954284;28;20133;-70
2022/03/08 02:53:30;;;;;;;240.25;23.17;;;;;;;;;;4951470;28;20708;-70
2022/03/08 02:55:57;;;;;;;121.50;20.63;;;;;;;;;;4955632;28;20414;-70
2022/03/08 02:58:27;;;;;;;192.27;21.08;;;;;;;;;;4955039;28;20134;-70
2022/03/08 03:00:53;;;;;;;155.35;21.60;;;;;;;;;;4952351;28;20166;-70
2022/03/08 03:03:20;;;;;;;155.63;16.35;;;;;;;;;;4953881;28;20105;-70
2022/03/08 03:05:47;;;;;;;127.97;21.00;;;;;;;;;;4954230;28;20277;-70
2022/03/08 03:08:13;;;;;;;114.63;20.65;;;;;;;;;;4935022;28;20057;-70
2022/03/08 03:10:39;;;;;;;103.90;19.97;;;;;;;;;;4952296;28;20137;-70
2022/03/08 03:13:06;;;;;;;104.90;20.38;;;;;;;;;;4955180;28;20422;-70
2022/03/08 03:15:32;;;;;;;134.93;20.55;;;;;;;;;;4954068;28;20093;-70
2022/03/08 03:18:00;;;;;;;96.57;20.83;;;;;;;;;;4953468;28;20082;-69
2022/03/08 03:20:27;;;;;;;130.65;19.38;;;;;;;;;;4954390;28;20330;-70
2022/03/08 03:22:54;;;;;;;203.45;23.13;;;;;;;;;;4954189;28;20450;-70
2022/03/08 03:25:20;;;;;;;301.13;25.73;;;;;;;;;;4953938;28;20145;-70
2022/03/08 03:27:47;;;;;;;411.98;26.63;;;;;;;;;;4953568;28;20073;-70
2022/03/08 03:30:15;;;;;;;493.80;28.13;;;;;;;;;;4954303;28;20133;-70
2022/03/08 03:32:41;;;;;;;485.33;28.10;;;;;;;;;;4954308;28;20138;-70
2022/03/08 03:35:08;;;;;;;506.73;29.20;;;;;;;;;;4952409;28;20162;-70
2022/03/08 03:37:35;;;;;;;462.35;26.70;;;;;;;;;;4952188;28;20434;-70
2022/03/08 03:40:02;;;;;;;380.73;19.30;;;;;;;;;;4953519;28;20185;-69
2022/03/08 03:42:28;;;;;;;299.98;21.58;;;;;;;;;;4952535;28;20595;-69
2022/03/08 03:44:55;;;;;;;320.88;25.92;;;;;;;;;;4952632;28;20189;-70
2022/03/08 03:47:21;;;;;;;239.70;20.40;;;;;;;;;;4953105;28;20057;-70
2022/03/08 03:49:48;;;;;;;282.88;20.00;;;;;;;;;;4952785;28;20141;-70
2022/03/08 03:52:15;;;;;;;333.25;17.60;;;;;;;;;;4953784;28;20137;-70
2022/03/08 03:54:41;;;;;;;230.57;19.50;;;;;;;;;;4954953;28;20614;-70
2022/03/08 03:57:11;;;;;;;315.27;21.10;;;;;;;;;;4957858;28;20066;-70
2022/03/08 03:59:39;;;;;;;334.90;21.58;;;;;;;;;;4956039;28;20531;-70
2022/03/08 04:02:06;;;;;;;166.98;16.13;;;;;;;;;;4956715;28;20181;-70
2022/03/08 04:04:32;;;;;;;77.93;15.90;;;;;;;;;;4955591;28;20689;-70
2022/03/08 04:07:01;;;;;;;188.13;18.08;;;;;;;;;;4956085;28;20051;-71
2022/03/08 04:09:27;;;;;;;232.00;18.63;;;;;;;;;;4954910;28;20236;-70
2022/03/08 04:11:54;;;;;;;173.83;13.60;;;;;;;;;;4955209;28;21423;-70
2022/03/08 04:14:20;;;;;;;265.33;16.13;;;;;;;;;;4955063;28;20054;-70
2022/03/08 04:16:47;;;;;;;163.93;14.15;;;;;;;;;;4956322;28;20078;-70
2022/03/08 04:19:18;;;;;;;61.78;12.77;;;;;;;;;;4954841;28;20138;-71
2022/03/08 04:21:45;;;;;;;84.83;14.43;;;;;;;;;;4955999;28;20141;-71
2022/03/08 04:24:11;;;;;;;41.72;11.52;;;;;;;;;;4956874;28;20059;-71
2022/03/08 04:26:38;;;;;;;41.08;12.63;;;;;;;;;;4954782;28;20185;-71
2022/03/08 04:29:04;;;;;;;39.95;12.05;;;;;;;;;;4955173;28;20051;-70
2022/03/08 04:31:32;;;;;;;50.90;13.30;;;;;;;;;;4955711;28;20506;-70
2022/03/08 04:33:59;;;;;;;42.03;13.82;;;;;;;;;;4954942;28;20047;-70
2022/03/08 04:36:25;;;;;;;52.70;14.63;;;;;;;;;;4954644;28;20053;-70
2022/03/08 04:38:54;;;;;;;54.38;14.05;;;;;;;;;;4956696;28;20058;-71
2022/03/08 04:41:21;;;;;;;183.47;13.90;;;;;;;;;;4956860;28;20046;-71
2022/03/08 04:43:47;;;;;;;251.10;23.05;;;;;;;;;;4954345;28;20145;-71
2022/03/08 04:46:14;;;;;;;55.60;14.98;;;;;;;;;;4954632;28;20058;-71
2022/03/08 04:48:40;;;;;;;53.85;14.75;;;;;;;;;;4955979;28;20874;-71
2022/03/08 04:51:07;;;;;;;52.80;15.32;;;;;;;;;;4955478;28;20086;-71
2022/03/08 04:53:34;;;;;;;53.30;15.37;;;;;;;;;;4954164;28;20430;-70
2022/03/08 04:56:03;;;;;;;43.95;13.85;;;;;;;;;;4956453;28;20386;-71
2022/03/08 04:58:30;;;;;;;43.67;13.65;;;;;;;;;;4955787;28;20487;-72
2022/03/08 05:00:56;;;;;;;34.42;10.80;;;;;;;;;;4956022;28;20066;-72
2022/03/08 05:03:23;;;;;;;34.10;10.55;;;;;;;;;;4963136;28;20513;-71
2022/03/08 05:05:50;;;;;;;35.30;10.77;;;;;;;;;;4961823;28;20055;-71
2022/03/08 05:08:16;;;;;;;38.40;13.63;;;;;;;;;;4961753;28;20836;-73
2022/03/08 05:10:43;;;;;;;25.85;9.90;;;;;;;;;;4963075;28;20145;-73
2022/03/08 05:13:09;;;;;;;38.85;13.07;;;;;;;;;;4962575;28;20169;-73
2022/03/08 05:15:36;;;;;;;42.57;13.63;;;;;;;;;;4959873;28;20124;-73
2022/03/08 05:18:08;;;;;;;37.40;13.02;;;;;;;;;;4962361;28;20333;-73
2022/03/08 05:20:36;;;;;;;42.03;12.85;;;;;;;;;;4962796;28;20490;-74
2022/03/08 05:23:03;;;;;;;41.13;13.10;;;;;;;;;;4960740;28;20135;-74
2022/03/08 05:25:34;;;;;;;52.30;15.40;;;;;;;;;;4963024;28;20081;-73
2022/03/08 05:28:00;;;;;;;41.60;14.43;;;;;;;;;;4964663;28;20138;-73
2022/03/08 05:30:26;;;;;;;27.70;9.50;;;;;;;;;;4961976;28;20081;-73
2022/03/08 05:32:53;;;;;;;31.80;11.97;;;;;;;;;;4962618;28;20134;-73
2022/03/08 05:35:20;;;;;;;30.90;12.52;;;;;;;;;;4960043;28;20051;-73
2022/03/08 05:37:46;;;;;;;26.63;9.52;;;;;;;;;;4964197;28;20128;-73
2022/03/08 05:40:13;;;;;;;36.50;12.40;;;;;;;;;;4959476;28;20519;-73
2022/03/08 05:42:40;;;;;;;28.27;10.15;;;;;;;;;;4961093;28;20073;-73
2022/03/08 05:45:07;;;;;;;24.90;8.82;;;;;;;;;;4961839;28;20055;-74
2022/03/08 05:47:35;;;;;;;29.50;11.63;;;;;;;;;;4965664;28;20082;-74
2022/03/08 05:50:01;;;;;;;24.50;8.80;;;;;;;;;;4959424;28;20672;-74
2022/03/08 05:52:28;;;;;;;31.17;11.48;;;;;;;;;;4960773;28;20109;-74
2022/03/08 05:55:01;;;;;;;32.63;11.68;;;;;;;;;;4958544;28;20051;-73
2022/03/08 05:57:27;;;;;;;23.47;9.07;;;;;;;;;;4959227;28;20083;-74
2022/03/08 05:59:53;;;;;;;22.77;8.97;;;;;;;;;;4963064;28;20141;-73
2022/03/08 06:02:27;;;;;;;28.23;11.40;;;;;;;;;;4943984;28;20055;-73
2022/03/08 06:04:53;;;;;;;18.75;7.63;;;;;;;;;;4942476;28;20081;-73
2022/03/08 06:07:21;;;;;;;30.92;12.45;;;;;;;;;;4939611;28;20095;-73
2022/03/08 06:09:54;;;;;;;32.88;11.75;;;;;;;;;;4944612;28;20146;-74
2022/03/08 06:12:20;;;;;;;42.27;14.43;;;;;;;;;;4955908;28;20453;-73
2022/03/08 06:14:46;;;;;;;36.23;11.80;;;;;;;;;;4955889;28;20167;-74
2022/03/08 06:17:14;;;;;;;61.60;17.05;;;;;;;;;;4954974;28;20794;-74
2022/03/08 06:19:40;;;;;;;45.95;14.73;;;;;;;;;;4955394;28;20138;-74
2022/03/08 06:22:07;;;;;;;37.10;12.80;;;;;;;;;;4956910;28;20506;-74
2022/03/08 06:24:34;;;;;;;46.45;13.02;;;;;;;;;;4956331;28;20173;-74
2022/03/08 06:27:00;;;;;;;35.15;10.80;;;;;;;;;;4957804;28;20078;-74
2022/03/08 06:29:27;;;;;;;107.05;18.33;;;;;;;;;;4956251;28;20150;-74
2022/03/08 06:31:53;;;;;;;100.35;17.55;;;;;;;;;;4956050;28;20173;-72
2022/03/08 06:34:20;;;;;;;111.13;18.73;;;;;;;;;;4954802;28;20043;-72
2022/03/08 06:36:46;;;;;;;95.03;21.90;;;;;;;;;;4956225;28;20053;-72
2022/03/08 06:39:15;;;;;;;142.95;21.88;;;;;;;;;;4955414;28;20051;-75
2022/03/08 06:41:42;;;;;;;180.60;24.95;;;;;;;;;;4956018;28;20047;-72
2022/03/08 06:44:08;;;;;;;157.05;23.50;;;;;;;;;;4956503;28;20545;-73
2022/03/08 06:46:36;;;;;;;161.02;22.02;;;;;;;;;;4955537;28;20557;-72
2022/03/08 06:49:03;;;;;;;183.82;25.05;;;;;;;;;;4955957;28;20568;-73
2022/03/08 06:51:30;;;;;;;423.23;31.23;;;;;;;;;;4952543;28;20134;-72
2022/03/08 06:53:58;;;;;;;344.13;29.73;;;;;;;;;;4955943;28;20758;-72
2022/03/08 06:56:24;;;;;;;379.80;34.57;;;;;;;;;;4955115;28;20167;-73
2022/03/08 06:58:50;;;;;;;274.90;29.07;;;;;;;;;;4956284;28;20596;-73
2022/03/08 07:01:18;;;;;;;159.70;22.30;;;;;;;;;;4956272;28;20046;-72
2022/03/08 07:03:45;;;;;;;281.83;27.80;;;;;;;;;;4955970;28;20486;-73
2022/03/08 07:06:12;;;;;;;326.67;31.88;;;;;;;;;;4955991;28;20485;-72
2022/03/08 07:08:38;;;;;;;337.88;35.67;;;;;;;;;;4954783;28;20059;-72
2022/03/08 07:11:05;;;;;;;361.92;36.97;;;;;;;;;;4937075;28;20133;-73
2022/03/08 07:13:32;;;;;;;350.50;37.28;;;;;;;;;;4957414;28;20149;-72
2022/03/08 07:15:59;;;;;;;353.98;34.65;;;;;;;;;;4955925;28;20170;-73
2022/03/08 07:18:25;;;;;;;319.00;33.20;;;;;;;;;;4956916;28;20050;-72
2022/03/08 07:20:52;;;;;;;322.37;26.77;;;;;;;;;;4954721;28;20980;-72
2022/03/08 07:23:20;;;;;;;340.90;34.25;;;;;;;;;;4956200;28;20047;-73
2022/03/08 07:25:47;;;;;;;275.88;31.80;;;;;;;;;;4956002;28;20054;-72
2022/03/08 07:28:13;;;;;;;344.13;35.10;;;;;;;;;;4955502;28;20047;-71
2022/03/08 07:30:57;;;;;;;233.55;33.28;;;;;;;;;;4960646;28;20692;-72
2022/03/08 07:33:25;;;;;;;;;;;;;;;;;;4955739;28;20057;-72
2022/03/08 07:35:53;;;;;;;169.85;29.33;;;;;;;;;;4956307;28;20626;-72
2022/03/08 07:38:19;;;;;;;152.87;24.50;;;;;;;;;;4958596;28;20043;-72
2022/03/08 07:40:46;;;;;;;206.40;31.27;;;;;;;;;;4959677;28;20378;-72
2022/03/08 07:43:15;;;;;;;136.35;27.83;;;;;;;;;;4957713;28;20522;-72
2022/03/08 07:45:42;;;;;;;203.48;32.45;;;;;;;;;;4959393;28;20133;-72
2022/03/08 07:48:09;;;;;;;125.82;22.67;;;;;;;;;;4959579;28;20038;-72
2022/03/08 07:50:36;;;;;;;137.95;24.23;;;;;;;;;;4959141;28;20047;-73
2022/03/08 07:53:04;;;;;;;214.95;18.88;;;;;;;;;;4960461;28;20047;-71
2022/03/08 07:55:30;;;;;;;157.95;23.58;;;;;;;;;;4942874;28;20146;-71
2022/03/08 07:58:00;;;;;;;206.20;27.27;;;;;;;;;;4941800;28;20137;-71
2022/03/08 08:00:29;;;;;;;318.33;29.80;;;;;;;;;;4958791;28;20046;-72
2022/03/08 08:02:56;;;;;;;;;;;;;;;;;;4959997;28;20055;-71
2022/03/08 08:05:26;;;;;;;324.05;26.25;;;;;;;;;;4959596;28;19969;-71
2022/03/08 08:07:52;;;;;;;239.00;25.77;;;;;;;;;;4959713;28;20082;-71
2022/03/08 08:10:19;;;;;;;311.60;26.63;;;;;;;;;;4938559;28;20137;-72
2022/03/08 08:12:45;;;;;;;199.20;24.92;;;;;;;;;;4959254;28;20078;-72
2022/03/08 08:15:12;;;;;;;152.90;17.52;;;;;;;;;;4957856;28;20137;-72
2022/03/08 08:17:38;;;;;;;167.57;23.42;;;;;;;;;;4960779;28;20145;-72
2022/03/08 08:20:06;;;;;;;116.00;22.05;;;;;;;;;;4963256;28;20082;-72
2022/03/08 08:22:32;;;;;;;121.18;20.83;;;;;;;;;;4960175;28;20158;-71
2022/03/08 08:24:59;;;;;;;102.63;20.17;;;;;;;;;;4965565;28;20074;-71
2022/03/08 08:27:32;;;;;;;69.18;17.90;;;;;;;;;;4962491;28;20098;-71
2022/03/08 08:29:58;;;;;;;88.60;20.33;;;;;;;;;;4963602;28;20090;-71
2022/03/08 08:32:25;;;;;;;109.75;17.88;;;;;;;;;;4966437;28;20493;-71
2022/03/08 08:34:55;;;;;;;92.95;18.50;;;;;;;;;;4941847;28;20083;-72
2022/03/08 08:37:21;;;;;;;69.47;18.38;;;;;;;;;;4960341;28;20102;-71
2022/03/08 08:39:47;;;;;;;76.40;17.92;;;;;;;;;;4963323;28;20469;-71
2022/03/08 08:42:21;;;;;;;64.00;17.35;;;;;;;;;;4960731;28;20059;-69
2022/03/08 08:44:47;;;;;;;65.80;17.50;;;;;;;;;;4966625;28;20182;-71
2022/03/08 08:47:14;;;;;;;60.45;16.38;;;;;;;;;;4966869;28;20631;-71
2022/03/08 08:49:40;;;;;;;51.45;15.40;;;;;;;;;;4962995;28;20426;-71
2022/03/08 08:52:11;;;;;;;47.17;16.10;;;;;;;;;;4952013;28;20129;-71
2022/03/08 08:54:37;;;;;;;58.40;17.73;;;;;;;;;;4963246;28;20126;-71
2022/03/08 08:57:04;;;;;;;58.00;17.08;;;;;;;;;;4966847;28;20054;-72
2022/03/08 08:59:31;;;;;;;53.15;12.95;;;;;;;;;;4963555;28;20090;-72
2022/03/08 09:01:58;;;;;;;54.22;17.10;;;;;;;;;;4963014;28;20082;-71
2022/03/08 09:04:25;;;;;;;;;;;;;;;;;;4961627;28;20047;-71
2022/03/08 09:06:58;;;;;;;42.25;14.57;;;;;;;;;;4965442;28;19926;-71
2022/03/08 09:09:24;;;;;;;42.03;15.02;;;;;;;;;;4962942;28;20126;-71
2022/03/08 09:11:50;;;;;;;44.65;15.13;;;;;;;;;;4965463;28;20079;-71
2022/03/08 09:14:24;;;;;;;40.50;14.75;;;;;;;;;;4965823;28;20101;-71
2022/03/08 09:16:54;;;;;;;45.03;15.05;;;;;;;;;;4960923;28;20058;-71
2022/03/08 09:19:20;;;;;;;37.42;15.05;;;;;;;;;;4956894;28;20162;-71
2022/03/08 09:21:47;;;;;;;50.03;15.80;;;;;;;;;;4958368;28;20146;-71
2022/03/08 09:24:13;;;;;;;49.73;15.30;;;;;;;;;;4957647;28;20405;-71
2022/03/08 09:26:40;;;;;;;46.30;15.30;;;;;;;;;;4958079;28;20238;-71
2022/03/08 09:29:06;;;;;;;53.75;15.80;;;;;;;;;;4954574;28;20125;-71
2022/03/08 09:31:33;;;;;;;40.50;16.08;;;;;;;;;;4941192;28;20055;-71
2022/03/08 09:34:00;;;;;;;35.47;14.13;;;;;;;;;;4958235;28;20109;-70
2022/03/08 09:36:27;;;;;;;39.90;14.95;;;;;;;;;;4957884;28;20158;-71
2022/03/08 09:38:54;;;;;;;44.77;16.60;;;;;;;;;;4957495;28;20102;-71
2022/03/08 09:41:21;;;;;;;43.10;15.13;;;;;;;;;;4956720;28;20074;-71
2022/03/08 09:43:48;;;;;;;33.88;14.15;;;;;;;;;;4956467;28;20057;-71
2022/03/08 09:46:14;;;;;;;41.05;14.80;;;;;;;;;;4956994;28;20050;-70
2022/03/08 09:48:41;;;;;;;36.33;15.25;;;;;;;;;;4956605;28;20146;-70
2022/03/08 09:51:08;;;;;;;47.27;15.83;;;;;;;;;;4958118;28;20146;-71
2022/03/08 09:53:53;;;;;;;38.75;15.13;;;;;;;;;;4957111;28;20289;-70
2022/03/08 09:56:20;;;;;;;33.58;13.68;;;;;;;;;;4956010;28;20087;-70
2022/03/08 09:58:46;;;;;;;30.97;14.80;;;;;;;;;;4956685;28;20126;-71
2022/03/08 10:01:13;;;;;;;35.53;16.08;;;;;;;;;;4955757;28;20338;-70
2022/03/08 10:03:40;;;;;;;;;;;;;;;;;;4956934;28;20126;-71
2022/03/08 10:06:07;;;;;;;28.77;13.15;;;;;;;;;;4958085;28;20333;-70
2022/03/08 10:08:34;;;;;;;30.27;14.48;;;;;;;;;;4957932;28;20053;-70
2022/03/08 10:11:02;;;;;;;33.80;15.35;;;;;;;;;;4955287;28;20614;-71
2022/03/08 10:13:46;;;;;;;38.33;16.33;;;;;;;;;;4957568;28;20167;-70
2022/03/08 10:16:25;;;;;;;32.42;15.55;;;;;;;;;;4940000;28;20142;-71
2022/03/08 10:18:53;;;;;;;34.60;17.27;;;;;;;;;;4956860;28;20105;-70
2022/03/08 10:21:32;;;;;;;39.28;18.00;;;;;;;;;;4958830;28;20141;-71
2022/03/08 10:24:00;;;;;;;35.78;16.17;;;;;;;;;;4957353;28;20486;-70
2022/03/08 10:26:27;;;;;;;31.90;16.10;;;;;;;;;;4955481;28;20070;-71
2022/03/08 10:28:54;;;;;;;34.47;17.52;;;;;;;;;;4958816;28;20562;-71
2022/03/08 10:31:21;;;;;;;36.25;16.75;;;;;;;;;;4939579;28;20089;-70
2022/03/08 10:33:50;;;;;;;36.53;17.38;;;;;;;;;;4957838;28;20077;-70
2022/03/08 10:36:18;;;;;;;38.28;19.02;;;;;;;;;;4963559;28;20558;-70
2022/03/08 10:39:03;;;;;;;34.75;16.75;;;;;;;;;;4956638;28;20059;-70
2022/03/08 10:41:30;;;;;;;35.30;17.00;;;;;;;;;;4963863;28;20080;-71
2022/03/08 10:43:56;;;;;;;36.35;18.13;;;;;;;;;;4962713;28;20133;-70
2022/03/08 10:46:24;;;;;;;36.25;19.00;;;;;;;;;;4959810;28;20053;-71
2022/03/08 10:48:52;;;;;;;39.47;19.27;;;;;;;;;;4960003;28;20412;-71
2022/03/08 10:51:18;;;;;;;35.63;17.88;;;;;;;;;;4959375;28;20138;-70
2022/03/08 10:53:45;;;;;;;40.50;19.10;;;;;;;;;;4962766;28;20138;-70
2022/03/08 10:56:11;;;;;;;40.35;19.20;;;;;;;;;;4962459;28;20469;-70
2022/03/08 10:58:48;;;;;;;38.65;20.13;;;;;;;;;;4959000;28;20556;-70
2022/03/08 11:01:15;;;;;;;33.58;17.75;;;;;;;;;;4960683;28;20075;-70
2022/03/08 11:03:54;;;;;;;38.92;19.30;;;;;;;;;;4959479;28;20051;-70
2022/03/08 11:06:24;;;;;;;37.70;20.52;;;;;;;;;;4958278;28;20464;-70
2022/03/08 11:08:52;;;;;;;36.72;18.95;;;;;;;;;;4961608;28;20078;-71
2022/03/08 11:11:19;;;;;;;37.05;19.75;;;;;;;;;;4959453;28;20709;-71
2022/03/08 11:13:54;;;;;;;37.40;18.77;;;;;;;;;;4959141;28;20082;-70
2022/03/08 11:16:21;;;;;;;32.47;17.77;;;;;;;;;;4960695;28;20055;-70
2022/03/08 11:18:49;;;;;;;40.08;18.77;;;;;;;;;;4962762;28;20558;-70
2022/03/08 11:21:17;;;;;;;38.05;19.33;;;;;;;;;;4960239;28;20085;-70
2022/03/08 11:23:44;;;;;;;34.65;18.15;;;;;;;;;;4956016;28;20082;-71
2022/03/08 11:26:12;;;;;;;24.27;14.20;;;;;;;;;;4959412;28;20082;-70
2022/03/08 11:28:48;;;;;;;33.58;18.35;;;;;;;;;;4958586;28;20514;-70
2022/03/08 11:31:19;;;;;;;41.08;19.77;;;;;;;;;;4955605;28;20158;-70
2022/03/08 11:33:49;;;;;;;35.47;19.02;;;;;;;;;;4956705;28;20130;-70
2022/03/08 11:36:15;;;;;;;33.78;17.50;;;;;;;;;;4955329;28;20167;-71
2022/03/08 11:38:42;;;;;;;33.72;18.75;;;;;;;;;;4957259;28;20555;-70
2022/03/08 11:41:23;;;;;;;33.05;18.55;;;;;;;;;;4954836;28;20075;-71
2022/03/08 11:43:50;;;;;;;38.00;18.90;;;;;;;;;;4955127;28;20101;-70
2022/03/08 11:46:18;;;;;;;34.83;19.45;;;;;;;;;;4956154;28;20121;-70
2022/03/08 11:48:44;;;;;;;;;;;;;;;;;;4956596;28;20109;-70
2022/03/08 11:51:10;;;;;;;37.63;19.00;;;;;;;;;;4956228;28;20025;-70
2022/03/08 11:53:41;;;;;;;32.10;18.63;;;;;;;;;;4954800;28;20069;-70
2022/03/08 11:56:14;;;;;;;34.10;18.13;;;;;;;;;;4954896;28;20600;-71
2022/03/08 11:58:43;;;;;;;33.30;18.42;;;;;;;;;;4955681;28;20121;-70
2022/03/08 12:01:20;;;;;;;33.58;19.23;;;;;;;;;;4954508;28;20054;-70
2022/03/08 12:03:55;;;;;;;34.30;18.50;;;;;;;;;;4956108;28;20417;-70
2022/03/08 12:06:32;;;;;;;36.40;20.50;;;;;;;;;;4956271;28;20494;-70
2022/03/08 12:09:07;;;;;;;39.88;19.83;;;;;;;;;;4955454;28;20074;-70
2022/03/08 12:11:35;;;;;;;36.38;19.10;;;;;;;;;;4953764;28;20134;-70
2022/03/08 12:14:25;;;;;;;36.92;19.90;;;;;;;;;;4955866;28;20047;-71
2022/03/08 12:16:53;;;;;;;32.55;17.52;;;;;;;;;;4959631;28;20070;-70
2022/03/08 12:19:30;;;;;;;33.58;19.00;;;;;;;;;;4962258;28;20058;-70
2022/03/08 12:21:57;;;;;;;34.08;19.10;;;;;;;;;;4958698;28;20061;-70
2022/03/08 12:24:24;;;;;;;22.83;14.18;;;;;;;;;;4959451;28;20564;-70
2022/03/08 12:26:51;;;;;;;29.73;19.33;;;;;;;;;;4958414;28;20580;-70
2022/03/08 12:29:46;;;;;;;29.83;18.25;;;;;;;;;;4958915;28;20051;-70
2022/03/08 12:32:32;;;;;;;32.70;19.25;;;;;;;;;;4957906;28;20050;-71
2022/03/08 12:35:01;;;;;;;31.52;19.35;;;;;;;;;;4959254;28;20051;-70
2022/03/08 12:38:06;;;;;;;30.63;19.95;;;;;;;;;;4957758;28;20530;-71
2022/03/08 12:40:32;;;;;;;34.45;19.67;;;;;;;;;;4905441;28;20129;-70
2022/03/08 12:43:03;;;;;;;33.80;19.95;;;;;;;;;;4957851;28;20142;-71
2022/03/08 12:45:33;;;;;;;33.10;17.63;;;;;;;;;;4958125;28;20141;-70
2022/03/08 12:48:02;;;;;;;33.88;18.65;;;;;;;;;;4939509;28;20058;-70
2022/03/08 12:50:31;;;;;;;35.65;18.92;;;;;;;;;;4956187;28;20078;-71
2022/03/08 12:53:03;;;;;;;34.58;18.08;;;;;;;;;;4958549;28;20047;-70
2022/03/08 12:55:31;;;;;;;36.65;23.30;;;;;;;;;;4957614;28;20051;-70
2022/03/08 12:58:02;;;;;;;33.88;19.02;;;;;;;;;;4958033;28;20169;-70
2022/03/08 13:00:34;;;;;;;22.38;14.85;;;;;;;;;;4958895;28;20177;-70
2022/03/08 13:03:07;;;;;;;24.23;16.20;;;;;;;;;;4957658;28;20415;-70
2022/03/08 13:05:35;;;;;;;29.10;17.13;;;;;;;;;;4957817;28;20482;-70
2022/03/08 13:08:01;;;;;;;;;;;;;;;;;;4958740;28;20557;-70
2022/03/08 13:10:31;;;;;;;21.90;14.77;;;;;;;;;;4956102;28;19925;-71
2022/03/08 13:13:14;;;;;;;27.13;16.15;;;;;;;;;;4956974;28;20051;-71
2022/03/08 13:15:41;;;;;;;26.63;14.68;;;;;;;;;;4956910;28;20383;-70
2022/03/08 13:18:08;;;;;;;33.83;15.45;;;;;;;;;;4958462;28;20129;-71
2022/03/08 13:20:43;;;;;;;28.80;15.70;;;;;;;;;;4957910;28;20626;-71
2022/03/08 13:23:14;;;;;;;24.83;13.38;;;;;;;;;;4956736;28;20055;-70
2022/03/08 13:25:42;;;;;;;19.95;11.88;;;;;;;;;;4957207;28;20877;-71
2022/03/08 13:28:17;;;;;;;27.30;12.30;;;;;;;;;;4957309;28;20137;-71
2022/03/08 13:30:46;;;;;;;19.63;11.88;;;;;;;;;;4957348;28;20061;-70
2022/03/08 13:33:23;;;;;;;22.73;10.90;;;;;;;;;;4959026;28;20086;-70
2022/03/08 13:35:57;;;;;;;20.95;11.52;;;;;;;;;;4957714;28;20051;-70
2022/03/08 13:38:25;;;;;;;18.60;11.32;;;;;;;;;;4954783;28;20101;-71
2022/03/08 13:40:56;;;;;;;19.98;11.98;;;;;;;;;;4956858;28;20074;-71
2022/03/08 13:43:25;;;;;;;23.38;11.93;;;;;;;;;;4951124;28;20456;-70
2022/03/08 13:46:14;;;;;;;23.65;12.68;;;;;;;;;;4957968;28;20189;-71
2022/03/08 13:48:46;;;;;;;19.88;11.90;;;;;;;;;;4956756;28;20489;-71
2022/03/08 13:51:12;;;;;;;28.52;12.90;;;;;;;;;;4955146;28;20163;-70
2022/03/08 13:53:39;;;;;;;19.13;12.13;;;;;;;;;;4957147;28;20074;-71
2022/03/08 13:56:06;;;;;;;22.23;11.50;;;;;;;;;;4956827;28;20082;-71
2022/03/08 13:58:43;;;;;;;16.02;10.00;;;;;;;;;;4956640;28;20058;-71
2022/03/08 14:01:13;;;;;;;28.08;10.77;;;;;;;;;;4936521;28;20161;-70
2022/03/08 14:03:41;;;;;;;21.33;9.90;;;;;;;;;;4957418;28;20146;-71
2022/03/08 14:06:10;;;;;;;17.23;9.05;;;;;;;;;;4956686;28;20074;-70
2022/03/08 14:08:43;;;;;;;23.13;10.25;;;;;;;;;;4956546;28;22283;-71
2022/03/08 14:11:11;;;;;;;16.20;9.10;;;;;;;;;;4955643;28;20145;-71
2022/03/08 14:13:37;;;;;;;;;;;;;;;;;;4956712;28;20522;-70
2022/03/08 14:16:05;;;;;;;18.15;10.07;;;;;;;;;;4955916;28;19922;-71
2022/03/08 14:18:32;;;;;;;15.60;8.90;;;;;;;;;;4956299;28;20078;-71
2022/03/08 14:20:59;;;;;;;16.45;9.63;;;;;;;;;;4955243;28;20053;-71
2022/03/08 14:23:27;;;;;;;19.80;8.63;;;;;;;;;;4955873;28;20047;-70